createdAt,value
2023-05-07T00:02:56.158Z,7.06
2023-05-07T00:08:02.173Z,6.98
2023-05-07T00:13:06.251Z,6.98
2023-05-07T00:18:10.304Z,7.01
2023-05-07T00:23:15.463Z,6.93
2023-05-07T00:28:19.510Z,6.90
2023-05-07T00:33:24.024Z,6.95
2023-05-07T00:38:29.367Z,6.89
2023-05-07T00:43:34.151Z,6.95
2023-05-07T00:48:38.152Z,6.86
2023-05-07T00:53:43.673Z,6.95
2023-05-07T00:58:47.783Z,6.98
2023-05-07T01:03:51.664Z,6.86
2023-05-07T01:08:57.982Z,6.90
2023-05-07T01:14:02.183Z,6.90
2023-05-07T01:19:07.133Z,6.80
2023-05-07T01:24:13.211Z,6.70
2023-05-07T01:29:17.284Z,6.73
2023-05-07T01:34:23.638Z,6.73
2023-05-07T01:39:30.836Z,6.71
2023-05-07T01:44:35.539Z,6.72
2023-05-07T01:49:40.024Z,6.57
2023-05-07T01:54:45.521Z,6.59
2023-05-07T01:59:49.578Z,6.58
2023-05-07T02:04:53.485Z,6.39
2023-05-07T02:10:00.636Z,6.40
2023-05-07T02:15:05.419Z,6.37
2023-05-07T02:20:14.363Z,6.21
2023-05-07T02:25:21.060Z,6.23
2023-05-07T02:30:26.026Z,6.16
2023-05-07T02:35:32.992Z,6.07
2023-05-07T02:40:40.891Z,5.94
2023-05-07T02:45:45.354Z,5.99
2023-05-07T02:50:50.382Z,5.95
2023-05-07T02:55:55.887Z,5.93
2023-05-07T03:01:00.162Z,5.79
2023-05-07T03:06:24.481Z,5.68
2023-05-07T03:11:30.248Z,5.63
2023-05-07T03:16:34.199Z,5.46
2023-05-07T03:21:38.463Z,5.52
2023-05-07T03:26:43.716Z,5.52
2023-05-07T03:31:47.802Z,5.53
2023-05-07T03:36:52.418Z,5.53
2023-05-07T03:41:58.815Z,5.47
2023-05-07T03:47:03.018Z,5.56
2023-05-07T03:52:07.238Z,5.60
2023-05-07T03:57:12.885Z,5.48
2023-05-07T04:02:17.548Z,5.48
2023-05-07T04:07:22.173Z,5.42
2023-05-07T04:12:29.432Z,5.48
2023-05-07T04:17:33.507Z,5.49
2023-05-07T04:22:39.008Z,5.40
2023-05-07T04:27:44.488Z,5.40
2023-05-07T04:32:50.228Z,5.38
2023-05-07T04:37:54.476Z,5.39
2023-05-07T04:43:00.163Z,5.40
2023-05-07T04:48:05.534Z,5.44
2023-05-07T04:53:10.806Z,5.46
2023-05-07T04:58:16.650Z,5.41
2023-05-07T05:03:23.792Z,5.37
2023-05-07T05:08:28.268Z,5.47
2023-05-07T05:13:33.985Z,5.53
2023-05-07T05:18:42.126Z,5.48
2023-05-07T05:23:48.129Z,5.52
2023-05-07T05:28:57.443Z,5.64
2023-05-07T05:34:04.591Z,5.75
2023-05-07T05:39:10.438Z,5.78
2023-05-07T05:44:16.060Z,5.74
2023-05-07T05:49:21.016Z,5.85
2023-05-07T05:54:25.363Z,5.93
2023-05-07T05:59:31.745Z,5.90
2023-05-07T06:04:36.081Z,5.99
2023-05-07T06:09:41.333Z,5.94
2023-05-07T06:14:47.318Z,5.99
2023-05-07T06:19:51.423Z,5.87
2023-05-07T06:24:57.493Z,5.90
2023-05-07T06:30:03.550Z,5.84
2023-05-07T06:35:08.981Z,5.83
2023-05-07T06:40:15.536Z,5.99
2023-05-07T06:45:21.684Z,5.88
2023-05-07T06:50:25.923Z,5.99
2023-05-07T06:55:33.997Z,6.01
2023-05-07T07:00:39.718Z,6.06
2023-05-07T07:05:43.898Z,6.03
2023-05-07T07:10:48.075Z,6.13
2023-05-07T07:15:54.185Z,6.21
2023-05-07T07:20:58.119Z,6.19
2023-05-07T07:26:02.374Z,6.38
2023-05-07T07:31:08.214Z,6.43
2023-05-07T07:36:12.721Z,6.47
2023-05-07T07:41:16.940Z,6.35
2023-05-07T07:46:23.057Z,6.41
2023-05-07T07:51:27.593Z,6.59
2023-05-07T07:56:31.799Z,6.77
2023-05-07T08:01:37.398Z,6.72
2023-05-07T08:06:41.535Z,6.51
2023-05-07T08:11:47.200Z,6.50
2023-05-07T08:16:53.615Z,6.63
2023-05-07T08:21:57.816Z,6.48
2023-05-07T08:27:03.024Z,6.63
2023-05-07T08:32:09.157Z,6.82
2023-05-07T08:37:13.320Z,7.14
2023-05-07T08:42:18.973Z,6.95
2023-05-07T08:47:24.815Z,6.87
2023-05-07T08:52:30.101Z,6.79
2023-05-07T08:57:34.399Z,6.87
2023-05-07T09:02:40.343Z,7.01
2023-05-07T09:07:46.884Z,6.99
2023-05-07T09:12:52.748Z,6.87
2023-05-07T09:18:02.016Z,6.87
2023-05-07T09:23:08.185Z,6.90
2023-05-07T09:28:15.350Z,6.84
2023-05-07T09:33:20.783Z,6.83
2023-05-07T09:38:29.646Z,6.70
2023-05-07T09:43:37.496Z,6.88
2023-05-07T09:48:46.216Z,7.01
2023-05-07T09:53:50.532Z,7.00
2023-05-07T09:58:56.149Z,7.15
2023-05-07T10:04:04.501Z,7.06
2023-05-07T10:09:10.818Z,7.06
2023-05-07T10:14:16.206Z,6.88
2023-05-07T10:19:24.265Z,7.11
2023-05-07T10:24:35.062Z,7.18
2023-05-07T10:29:47.248Z,7.11
2023-05-07T10:34:55.728Z,7.14
2023-05-07T10:40:00.184Z,7.13
2023-05-07T10:45:16.770Z,7.43
2023-05-07T10:50:26.237Z,7.74
2023-05-07T10:55:37.222Z,7.66
2023-05-07T11:00:46.785Z,7.59
2023-05-07T11:06:13.019Z,7.61
2023-05-07T11:11:53.107Z,7.70
2023-05-07T11:17:11.511Z,7.91
2023-05-07T11:22:40.935Z,7.99
2023-05-07T11:27:58.802Z,7.86
2023-05-07T11:33:03.295Z,7.79
2023-05-07T11:38:08.855Z,8.02
2023-05-07T11:43:13.797Z,8.25
2023-05-07T11:48:18.959Z,8.43
2023-05-07T11:53:26.985Z,8.62
2023-05-07T11:58:31.334Z,8.63
2023-05-07T12:03:36.388Z,8.51
2023-05-07T12:08:44.889Z,8.23
2023-05-07T12:13:50.567Z,8.01
2023-05-07T12:18:56.146Z,7.71
2023-05-07T12:24:01.499Z,8.10
2023-05-07T12:29:06.036Z,8.26
2023-05-07T12:34:09.987Z,7.97
2023-05-07T12:39:15.557Z,8.14
2023-05-07T12:44:19.379Z,8.39
2023-05-07T12:49:26.077Z,8.74
2023-05-07T12:54:32.403Z,9.23
2023-05-07T12:59:38.741Z,9.76
2023-05-07T13:04:42.761Z,9.66
2023-05-07T13:09:49.224Z,9.23
2023-05-07T13:14:53.098Z,9.77
2023-05-07T13:19:57.131Z,9.97
2023-05-07T13:25:02.312Z,9.06
2023-05-07T13:30:07.739Z,8.30
2023-05-07T13:35:11.843Z,8.25
2023-05-07T13:40:17.477Z,8.14
2023-05-07T13:45:22.136Z,8.36
2023-05-07T13:50:27.990Z,8.43
2023-05-07T13:55:33.375Z,8.20
2023-05-07T14:00:37.718Z,8.04
2023-05-07T14:05:41.731Z,7.86
2023-05-07T14:10:47.264Z,7.55
2023-05-07T14:15:51.069Z,7.95
2023-05-07T14:20:54.882Z,8.17
2023-05-07T14:26:00.044Z,7.99
2023-05-07T14:31:04.180Z,7.96
2023-05-07T14:36:08.747Z,7.61
2023-05-07T14:41:14.176Z,7.56
2023-05-07T14:46:19.065Z,7.80
2023-05-07T14:51:23.288Z,7.94
2023-05-07T14:56:28.615Z,8.01
2023-05-07T15:01:33.119Z,8.05
2023-05-07T15:06:37.272Z,7.85
2023-05-07T15:11:42.640Z,7.89
2023-05-07T15:16:46.874Z,7.78
2023-05-07T15:21:50.861Z,7.77
2023-05-07T15:26:56.165Z,7.69
2023-05-07T15:32:00.052Z,7.75
2023-05-07T15:37:04.011Z,7.51
2023-05-07T15:42:09.235Z,7.43
2023-05-07T15:47:15.258Z,7.73
2023-05-07T15:52:19.757Z,7.68
2023-05-07T15:57:24.956Z,7.77
2023-05-07T16:02:29.244Z,7.75
2023-05-07T16:07:33.365Z,7.84
2023-05-07T16:12:38.827Z,7.71
2023-05-07T16:17:42.920Z,7.57
2023-05-07T16:22:47.329Z,7.50
2023-05-07T16:27:54.473Z,7.52
2023-05-07T16:32:58.506Z,7.48
2023-05-07T16:38:09.613Z,7.55
2023-05-07T16:43:15.126Z,7.51
2023-05-07T16:48:21.013Z,7.48
2023-05-07T16:53:25.511Z,7.49
2023-05-07T16:58:30.713Z,7.38
2023-05-07T17:03:34.872Z,7.36
2023-05-07T17:08:40.740Z,7.37
2023-05-07T17:13:48.006Z,7.30
2023-05-07T17:18:51.795Z,7.27
2023-05-07T17:23:55.785Z,7.36
2023-05-07T17:29:01.130Z,7.27
2023-05-07T17:34:05.115Z,7.26
2023-05-07T17:39:09.140Z,7.26
2023-05-07T17:44:14.348Z,7.20
2023-05-07T17:49:18.824Z,7.10
2023-05-07T17:54:24.293Z,7.15
2023-05-07T17:59:30.219Z,7.09
2023-05-07T18:04:34.341Z,7.15
2023-05-07T18:09:38.559Z,7.10
2023-05-07T18:14:44.132Z,6.99
2023-05-07T18:19:48.321Z,7.08
2023-05-07T18:24:53.190Z,7.04
2023-05-07T18:29:58.874Z,6.93
2023-05-07T18:35:02.729Z,6.94
2023-05-07T18:40:07.707Z,6.89
2023-05-07T18:45:13.580Z,6.88
2023-05-07T18:50:17.793Z,6.85
2023-05-07T18:55:22.396Z,6.88
2023-05-07T19:00:28.145Z,6.81
2023-05-07T19:05:32.203Z,6.84
2023-05-07T19:10:36.279Z,6.77
2023-05-07T19:15:41.873Z,6.85
2023-05-07T19:20:46.281Z,6.82
2023-05-07T19:25:50.684Z,6.70
2023-05-07T19:30:56.170Z,6.87
2023-05-07T19:36:01.311Z,6.78
2023-05-07T19:41:06.337Z,6.74
2023-05-07T19:46:11.566Z,6.64
2023-05-07T19:51:15.913Z,6.40
2023-05-07T19:56:20.231Z,6.19
2023-05-07T20:01:25.834Z,6.04
2023-05-07T20:06:29.880Z,6.02
2023-05-07T20:11:33.940Z,5.84
2023-05-07T20:16:39.668Z,5.74
2023-05-07T20:21:44.109Z,5.52
2023-05-07T20:26:48.260Z,5.34
2023-05-07T20:31:53.480Z,5.22
2023-05-07T20:36:57.284Z,5.14
2023-05-07T20:42:01.339Z,5.13
2023-05-07T20:47:07.338Z,5.08
2023-05-07T20:52:11.219Z,4.96
2023-05-07T20:57:15.957Z,4.90
2023-05-07T21:02:21.581Z,4.79
2023-05-07T21:07:26.176Z,4.71
2023-05-07T21:12:30.203Z,4.57
2023-05-07T21:17:35.829Z,4.43
2023-05-07T21:22:39.943Z,4.20
2023-05-07T21:27:44.160Z,4.13
2023-05-07T21:32:49.528Z,4.17
2023-05-07T21:37:53.563Z,4.20
2023-05-07T21:42:57.651Z,4.23
2023-05-07T21:48:03.532Z,4.30
2023-05-07T21:53:07.577Z,4.26
2023-05-07T21:58:12.088Z,4.25
2023-05-07T22:03:17.608Z,4.22
2023-05-07T22:08:21.710Z,4.20
2023-05-07T22:13:25.985Z,4.14
2023-05-07T22:18:31.558Z,4.06
2023-05-07T22:23:35.926Z,4.06
2023-05-07T22:28:39.949Z,4.02
2023-05-07T22:33:45.417Z,3.99
2023-05-07T22:38:49.470Z,3.90
2023-05-07T22:43:53.609Z,3.94
2023-05-07T22:48:59.186Z,3.88
2023-05-07T22:54:03.331Z,3.86
2023-05-07T22:59:08.082Z,3.81
2023-05-07T23:04:13.482Z,3.76
2023-05-07T23:09:17.675Z,3.82
2023-05-07T23:14:23.814Z,3.69
2023-05-07T23:19:29.756Z,3.67
2023-05-07T23:24:34.981Z,3.66
2023-05-07T23:29:39.027Z,3.63
2023-05-07T23:34:44.523Z,3.57
2023-05-07T23:39:48.599Z,3.55
2023-05-07T23:44:53.087Z,3.53
2023-05-07T23:49:58.693Z,3.47
2023-05-07T23:55:02.722Z,3.42
